Time;durP1;ratioP1;P1;durP2;ratioP2;P2;SDS_P1;SDS_P2;PMS_P1;PMS_P2;Temp;Humidity;BMP_temperature;BMP_pressure;BME280_temperature;BME280_humidity;BME280_pressure;Samples;Min_cycle;Max_cycle;Signal;HPM_P1;HPM_P2
2021/10/29 00:00:20;;;;;;;23.88;18.55;;;;;;;;;;2080803;28;20200;-61
2021/10/29 00:01:34;;;;;;;22.00;18.23;;;;;;;;;;2081085;28;20164;-62
2021/10/29 00:02:34;;;;;;;23.05;18.65;;;;;;;;;;2079607;28;20267;-60
2021/10/29 00:03:35;;;;;;;21.10;16.48;;;;;;;;;;2079883;28;20187;-63
2021/10/29 00:04:35;;;;;;;19.88;16.75;;;;;;;;;;2080896;28;20175;-61
2021/10/29 00:05:36;;;;;;;19.40;17.08;;;;;;;;;;2080230;28;20192;-62
2021/10/29 00:06:37;;;;;;;22.95;18.75;;;;;;;;;;2080958;28;20188;-62
2021/10/29 00:07:37;;;;;;;22.77;17.65;;;;;;;;;;2080888;28;20208;-62
2021/10/29 00:08:37;;;;;;;20.95;18.17;;;;;;;;;;2072095;28;20173;-62
2021/10/29 00:09:38;;;;;;;22.90;18.58;;;;;;;;;;2072519;28;20307;-62
2021/10/29 00:10:38;;;;;;;21.27;17.58;;;;;;;;;;2081039;28;20566;-62
2021/10/29 00:11:39;;;;;;;27.05;19.05;;;;;;;;;;2073530;28;20208;-61
2021/10/29 00:12:39;;;;;;;20.52;18.02;;;;;;;;;;2071364;28;20177;-61
2021/10/29 00:13:39;;;;;;;22.88;18.05;;;;;;;;;;2080191;28;20202;-61
2021/10/29 00:14:41;;;;;;;20.00;16.50;;;;;;;;;;2081887;28;20645;-62
2021/10/29 00:15:41;;;;;;;20.40;17.25;;;;;;;;;;2069942;28;20177;-62
2021/10/29 00:16:41;;;;;;;20.88;17.30;;;;;;;;;;2072897;28;20674;-62
2021/10/29 00:17:42;;;;;;;24.10;18.20;;;;;;;;;;2078262;28;20191;-60
2021/10/29 00:18:42;;;;;;;20.00;17.40;;;;;;;;;;2082156;28;20263;-60
2021/10/29 00:19:42;;;;;;;21.35;18.08;;;;;;;;;;2081768;28;20262;-62
2021/10/29 00:20:42;;;;;;;24.50;18.58;;;;;;;;;;2081738;28;20191;-60
2021/10/29 00:21:43;;;;;;;26.38;18.83;;;;;;;;;;2081662;28;20179;-62
2021/10/29 00:22:43;;;;;;;21.65;18.38;;;;;;;;;;2081856;28;20184;-59
2021/10/29 00:23:43;;;;;;;20.48;17.92;;;;;;;;;;2081160;28;20183;-62
2021/10/29 00:24:44;;;;;;;23.65;18.27;;;;;;;;;;2081485;28;20235;-62
2021/10/29 00:25:44;;;;;;;23.55;18.30;;;;;;;;;;2065557;28;20197;-62
2021/10/29 00:26:44;;;;;;;22.70;17.92;;;;;;;;;;2056135;28;20643;-61
2021/10/29 00:27:45;;;;;;;24.90;19.45;;;;;;;;;;2072836;28;20219;-62
2021/10/29 00:28:45;;;;;;;24.40;20.20;;;;;;;;;;2078583;28;20308;-61
2021/10/29 00:29:45;;;;;;;26.13;19.63;;;;;;;;;;2082128;28;20630;-62
2021/10/29 00:30:46;;;;;;;25.40;19.55;;;;;;;;;;2077740;28;20173;-62
2021/10/29 00:31:46;;;;;;;24.23;19.33;;;;;;;;;;2082423;28;20267;-62
2021/10/29 00:32:46;;;;;;;22.38;18.48;;;;;;;;;;2081817;28;20446;-62
2021/10/29 00:33:47;;;;;;;27.88;20.00;;;;;;;;;;2081642;28;20314;-61
2021/10/29 00:34:47;;;;;;;26.80;20.25;;;;;;;;;;2082016;28;20196;-60
2021/10/29 00:35:47;;;;;;;24.75;20.42;;;;;;;;;;2082068;28;20184;-59
2021/10/29 00:36:47;;;;;;;26.23;18.58;;;;;;;;;;2074278;28;20181;-62
2021/10/29 00:37:48;;;;;;;25.52;20.60;;;;;;;;;;2073827;28;20176;-60
2021/10/29 00:38:48;;;;;;;25.42;19.20;;;;;;;;;;2089799;28;20532;-60
2021/10/29 00:39:48;;;;;;;26.15;20.20;;;;;;;;;;2090285;28;20708;-62
2021/10/29 00:40:49;;;;;;;26.40;20.20;;;;;;;;;;2082118;28;20164;-61
2021/10/29 00:41:49;;;;;;;25.70;21.77;;;;;;;;;;2082491;28;20706;-61
2021/10/29 00:42:50;;;;;;;26.42;21.50;;;;;;;;;;2082430;28;20613;-59
2021/10/29 00:43:50;;;;;;;30.00;22.90;;;;;;;;;;2090085;28;20191;-61
2021/10/29 00:44:50;;;;;;;26.67;21.20;;;;;;;;;;2090022;28;20771;-58
2021/10/29 00:45:51;;;;;;;28.27;21.98;;;;;;;;;;2073206;28;20635;-62
2021/10/29 00:46:52;;;;;;;25.73;21.35;;;;;;;;;;2073631;28;20196;-61
2021/10/29 00:47:53;;;;;;;26.43;20.90;;;;;;;;;;2073516;28;20173;-60
2021/10/29 00:48:53;;;;;;;27.50;20.60;;;;;;;;;;2073604;28;20204;-60
2021/10/29 00:49:53;;;;;;;24.75;20.00;;;;;;;;;;2082152;28;20172;-60
2021/10/29 00:50:54;;;;;;;25.07;20.03;;;;;;;;;;2082087;28;20180;-60
2021/10/29 00:51:54;;;;;;;27.17;21.48;;;;;;;;;;2082493;28;20544;-61
2021/10/29 00:52:55;;;;;;;29.63;21.85;;;;;;;;;;2082446;28;20208;-59
2021/10/29 00:53:55;;;;;;;24.38;19.88;;;;;;;;;;2082350;28;20172;-59
2021/10/29 00:54:56;;;;;;;27.48;21.52;;;;;;;;;;2077789;28;20606;-60
2021/10/29 00:55:56;;;;;;;29.05;21.80;;;;;;;;;;2081682;28;20180;-60
2021/10/29 00:56:56;;;;;;;29.15;22.17;;;;;;;;;;2076806;28;20181;-61
2021/10/29 00:57:57;;;;;;;29.75;21.55;;;;;;;;;;2082182;28;20184;-62
2021/10/29 00:58:57;;;;;;;30.38;21.38;;;;;;;;;;2072444;28;20390;-60
2021/10/29 00:59:58;;;;;;;26.83;20.85;;;;;;;;;;2073409;28;20231;-61
2021/10/29 01:00:58;;;;;;;26.33;21.07;;;;;;;;;;2077833;28;20221;-60
2021/10/29 01:01:58;;;;;;;27.33;21.63;;;;;;;;;;2080993;28;20207;-59
2021/10/29 01:02:59;;;;;;;27.95;21.98;;;;;;;;;;2060094;28;20722;-60
2021/10/29 01:03:59;;;;;;;29.45;22.58;;;;;;;;;;2073029;28;20200;-60
2021/10/29 01:05:02;;;;;;;25.07;20.47;;;;;;;;;;2072749;28;20184;-62
2021/10/29 01:06:03;;;;;;;29.03;20.80;;;;;;;;;;2078871;28;20580;-61
2021/10/29 01:07:04;;;;;;;30.20;21.60;;;;;;;;;;2081589;28;20247;-61
2021/10/29 01:08:04;;;;;;;23.02;20.02;;;;;;;;;;2082254;28;20168;-59
2021/10/29 01:09:05;;;;;;;26.20;21.15;;;;;;;;;;2080299;28;20172;-60
2021/10/29 01:10:06;;;;;;;26.80;21.23;;;;;;;;;;2073183;28;20176;-60
2021/10/29 01:11:10;;;;;;;28.23;22.20;;;;;;;;;;2073338;28;20171;-60
2021/10/29 01:12:11;;;;;;;30.52;22.67;;;;;;;;;;2081954;28;20175;-61
2021/10/29 01:13:11;;;;;;;31.73;21.58;;;;;;;;;;2082352;28;20204;-61
2021/10/29 01:14:11;;;;;;;29.35;21.73;;;;;;;;;;2082434;28;20596;-60
2021/10/29 01:15:11;;;;;;;27.70;21.58;;;;;;;;;;2077674;28;20188;-61
2021/10/29 01:16:12;;;;;;;26.60;21.83;;;;;;;;;;2081839;28;20183;-58
2021/10/29 01:17:12;;;;;;;29.30;22.27;;;;;;;;;;2078403;28;20176;-61
2021/10/29 01:18:13;;;;;;;33.50;21.13;;;;;;;;;;2080568;28;20184;-62
2021/10/29 01:19:13;;;;;;;28.85;23.10;;;;;;;;;;2077414;28;20214;-60
2021/10/29 01:20:17;;;;;;;28.73;21.20;;;;;;;;;;2080465;28;20589;-61
2021/10/29 01:21:17;;;;;;;30.38;22.50;;;;;;;;;;2076980;28;20262;-59
2021/10/29 01:22:18;;;;;;;26.30;22.00;;;;;;;;;;2081677;28;20633;-57
2021/10/29 01:23:19;;;;;;;31.70;22.83;;;;;;;;;;2073508;28;20181;-63
2021/10/29 01:24:19;;;;;;;28.23;22.55;;;;;;;;;;2073029;28;20193;-59
2021/10/29 01:25:19;;;;;;;30.20;22.63;;;;;;;;;;2082149;28;20207;-60
2021/10/29 01:26:20;;;;;;;27.88;21.38;;;;;;;;;;2079133;28;20169;-62
2021/10/29 01:27:21;;;;;;;28.80;22.35;;;;;;;;;;2077969;28;20172;-60
2021/10/29 01:28:21;;;;;;;28.33;21.23;;;;;;;;;;2081912;28;20207;-60
2021/10/29 01:29:22;;;;;;;29.47;23.30;;;;;;;;;;2082165;28;20218;-59
2021/10/29 01:30:22;;;;;;;28.17;23.17;;;;;;;;;;2077995;28;20176;-60
2021/10/29 01:31:22;;;;;;;31.02;21.90;;;;;;;;;;2078146;28;20176;-60
2021/10/29 01:32:22;;;;;;;29.17;22.02;;;;;;;;;;2077637;28;20538;-61
2021/10/29 01:33:23;;;;;;;28.50;22.67;;;;;;;;;;2078528;28;20172;-59
2021/10/29 01:34:23;;;;;;;26.77;21.70;;;;;;;;;;2082761;28;20649;-60
2021/10/29 01:35:24;;;;;;;29.67;22.70;;;;;;;;;;2081837;28;20619;-64
2021/10/29 01:36:24;;;;;;;28.47;22.63;;;;;;;;;;2082131;28;20196;-59
2021/10/29 01:37:25;;;;;;;29.13;23.17;;;;;;;;;;2081989;28;20273;-59
2021/10/29 01:38:29;;;;;;;31.60;21.85;;;;;;;;;;2082658;28;20180;-60
2021/10/29 01:39:29;;;;;;;31.17;22.47;;;;;;;;;;2082597;28;20188;-59
2021/10/29 01:40:29;;;;;;;26.57;20.37;;;;;;;;;;2082198;28;20204;-61
2021/10/29 01:41:30;;;;;;;28.03;22.23;;;;;;;;;;2082554;28;20255;-59
2021/10/29 01:42:30;;;;;;;30.58;20.88;;;;;;;;;;2082379;28;20185;-61
2021/10/29 01:43:31;;;;;;;27.33;21.73;;;;;;;;;;2082289;28;20176;-61
2021/10/29 01:44:32;;;;;;;27.87;20.97;;;;;;;;;;2082154;28;20221;-60
2021/10/29 01:45:34;;;;;;;26.65;20.65;;;;;;;;;;2082259;28;20653;-61
2021/10/29 01:46:34;;;;;;;28.50;20.83;;;;;;;;;;2082226;28;20168;-61
2021/10/29 01:47:34;;;;;;;27.10;20.80;;;;;;;;;;2082296;28;20256;-58
2021/10/29 01:48:39;;;;;;;29.60;22.15;;;;;;;;;;2082271;28;20176;-62
2021/10/29 01:49:40;;;;;;;27.43;21.83;;;;;;;;;;2083397;28;20239;-62
2021/10/29 01:50:41;;;;;;;30.67;21.13;;;;;;;;;;2082339;28;20675;-62
2021/10/29 01:51:41;;;;;;;29.80;22.60;;;;;;;;;;2082514;28;20302;-62
2021/10/29 01:52:41;;;;;;;28.45;21.45;;;;;;;;;;2082540;28;20226;-60
2021/10/29 01:53:42;;;;;;;29.17;21.23;;;;;;;;;;2073772;28;20183;-62
2021/10/29 01:54:42;;;;;;;28.10;22.70;;;;;;;;;;2074390;28;20180;-62
2021/10/29 01:55:42;;;;;;;26.50;21.35;;;;;;;;;;2073222;28;20235;-65
2021/10/29 01:56:43;;;;;;;29.03;22.53;;;;;;;;;;2075507;28;20189;-62
2021/10/29 01:57:43;;;;;;;28.27;21.25;;;;;;;;;;2080842;28;20543;-62
2021/10/29 01:58:45;;;;;;;28.20;22.73;;;;;;;;;;2081235;28;20188;-62
2021/10/29 01:59:45;;;;;;;31.08;22.65;;;;;;;;;;2080823;28;20199;-61
2021/10/29 02:00:46;;;;;;;29.07;22.00;;;;;;;;;;2080516;28;20294;-62
2021/10/29 02:01:46;;;;;;;29.60;22.20;;;;;;;;;;2078894;28;20180;-59
2021/10/29 02:02:46;;;;;;;32.33;21.40;;;;;;;;;;2081352;28;20664;-61
2021/10/29 02:03:47;;;;;;;30.27;22.10;;;;;;;;;;2073133;28;20192;-62
2021/10/29 02:04:48;;;;;;;26.67;21.40;;;;;;;;;;2071179;28;20240;-62
2021/10/29 02:05:48;;;;;;;28.27;21.47;;;;;;;;;;2073829;28;20872;-64
2021/10/29 02:06:48;;;;;;;29.87;21.07;;;;;;;;;;2081617;28;20176;-61
2021/10/29 02:07:49;;;;;;;33.73;22.77;;;;;;;;;;2078174;28;20555;-62
2021/10/29 02:08:49;;;;;;;26.77;20.53;;;;;;;;;;2080742;28;20259;-63
2021/10/29 02:09:49;;;;;;;27.97;21.10;;;;;;;;;;2080999;28;20226;-63
2021/10/29 02:10:50;;;;;;;28.83;21.77;;;;;;;;;;2077302;28;20203;-61
2021/10/29 02:11:51;;;;;;;29.63;20.43;;;;;;;;;;2081352;28;20173;-60
2021/10/29 02:12:51;;;;;;;28.60;21.20;;;;;;;;;;2080825;28;20527;-59
2021/10/29 02:13:52;;;;;;;27.57;21.20;;;;;;;;;;2081704;28;20744;-64
2021/10/29 02:14:52;;;;;;;28.73;21.20;;;;;;;;;;2080418;28;20172;-61
2021/10/29 02:15:53;;;;;;;31.10;22.27;;;;;;;;;;2080893;28;20660;-60
2021/10/29 02:16:53;;;;;;;28.57;20.67;;;;;;;;;;2080635;28;20168;-62
2021/10/29 02:17:53;;;;;;;25.20;20.03;;;;;;;;;;2081500;28;20164;-65
2021/10/29 02:18:54;;;;;;;27.93;20.70;;;;;;;;;;2080673;28;20301;-63
2021/10/29 02:19:54;;;;;;;27.47;20.80;;;;;;;;;;2081524;28;20260;-63
2021/10/29 02:20:54;;;;;;;26.70;20.43;;;;;;;;;;2081048;28;20178;-63
2021/10/29 02:21:55;;;;;;;28.37;20.67;;;;;;;;;;2081814;28;20176;-62
2021/10/29 02:22:55;;;;;;;27.57;20.37;;;;;;;;;;2076072;28;20640;-62
2021/10/29 02:23:55;;;;;;;26.53;20.53;;;;;;;;;;2081690;28;20570;-62
2021/10/29 02:24:56;;;;;;;27.77;19.67;;;;;;;;;;2072044;28;20196;-63
2021/10/29 02:25:56;;;;;;;29.53;20.20;;;;;;;;;;2072765;28;20214;-62
2021/10/29 02:26:57;;;;;;;27.17;20.40;;;;;;;;;;2081316;28;20188;-62
2021/10/29 02:27:57;;;;;;;27.33;21.77;;;;;;;;;;2080869;28;20497;-60
2021/10/29 02:28:57;;;;;;;28.23;20.90;;;;;;;;;;2081163;28;20703;-61
2021/10/29 02:29:58;;;;;;;26.10;20.20;;;;;;;;;;2081070;28;20175;-60
2021/10/29 02:30:58;;;;;;;27.73;19.50;;;;;;;;;;2072700;28;20177;-61
2021/10/29 02:31:59;;;;;;;24.57;19.37;;;;;;;;;;2074200;28;20279;-62
2021/10/29 02:32:59;;;;;;;24.93;19.10;;;;;;;;;;2073475;28;20181;-62
2021/10/29 02:34:00;;;;;;;29.37;20.33;;;;;;;;;;2082657;28;20180;-63
2021/10/29 02:35:00;;;;;;;26.97;19.80;;;;;;;;;;2090003;28;20177;-59
2021/10/29 02:36:00;;;;;;;28.47;20.03;;;;;;;;;;2082367;28;20339;-61
2021/10/29 02:37:01;;;;;;;27.43;20.00;;;;;;;;;;2073621;28;20185;-59
2021/10/29 02:38:01;;;;;;;26.57;21.10;;;;;;;;;;2089539;28;20201;-63
2021/10/29 02:39:01;;;;;;;26.87;20.40;;;;;;;;;;2089607;28;20189;-62
2021/10/29 02:40:02;;;;;;;28.95;21.27;;;;;;;;;;2081623;28;20274;-60
2021/10/29 02:41:02;;;;;;;30.60;21.30;;;;;;;;;;2081537;28;20172;-61
2021/10/29 02:42:04;;;;;;;29.40;21.27;;;;;;;;;;2081594;28;20180;-60
2021/10/29 02:43:05;;;;;;;28.13;20.63;;;;;;;;;;2081651;28;20196;-61
2021/10/29 02:44:05;;;;;;;26.53;20.83;;;;;;;;;;2081430;28;20169;-61
2021/10/29 02:45:06;;;;;;;25.97;20.53;;;;;;;;;;2072783;28;20187;-64
2021/10/29 02:46:06;;;;;;;26.73;20.30;;;;;;;;;;2072542;28;20243;-66
2021/10/29 02:47:06;;;;;;;27.63;21.07;;;;;;;;;;2081435;28;20173;-62
2021/10/29 02:48:06;;;;;;;29.80;20.77;;;;;;;;;;2081196;28;20259;-62
2021/10/29 02:49:07;;;;;;;29.57;20.30;;;;;;;;;;2081172;28;20183;-61
2021/10/29 02:50:07;;;;;;;28.93;20.93;;;;;;;;;;2081472;28;20207;-62
2021/10/29 02:51:07;;;;;;;23.30;19.75;;;;;;;;;;2081137;28;20168;-59
2021/10/29 02:52:08;;;;;;;26.83;19.67;;;;;;;;;;2081163;28;20171;-65
2021/10/29 02:53:09;;;;;;;26.73;20.23;;;;;;;;;;2081489;28;20735;-64
2021/10/29 02:54:09;;;;;;;23.10;19.00;;;;;;;;;;2081182;28;20184;-58
2021/10/29 02:55:10;;;;;;;27.47;19.40;;;;;;;;;;2089026;28;20223;-64
2021/10/29 02:56:10;;;;;;;28.30;20.73;;;;;;;;;;2087244;28;20195;-62
2021/10/29 02:57:11;;;;;;;27.27;20.57;;;;;;;;;;2072336;28;20239;-62
2021/10/29 02:58:11;;;;;;;29.17;21.40;;;;;;;;;;2071769;28;20189;-62
2021/10/29 02:59:11;;;;;;;28.90;20.00;;;;;;;;;;2081202;28;20192;-64
2021/10/29 03:00:15;;;;;;;26.40;19.33;;;;;;;;;;2079659;28;20550;-62
2021/10/29 03:01:15;;;;;;;26.70;19.33;;;;;;;;;;2080444;28;20191;-62
2021/10/29 03:02:16;;;;;;;28.70;20.73;;;;;;;;;;2079697;28;20176;-60
2021/10/29 03:03:16;;;;;;;28.03;20.97;;;;;;;;;;2080890;28;20215;-61
2021/10/29 03:04:16;;;;;;;26.73;20.07;;;;;;;;;;2079827;28;20182;-61
2021/10/29 03:05:16;;;;;;;26.87;19.53;;;;;;;;;;2081321;28;20325;-61
2021/10/29 03:06:17;;;;;;;24.40;20.00;;;;;;;;;;2080744;28;20190;-62
2021/10/29 03:07:17;;;;;;;27.93;19.23;;;;;;;;;;2080611;28;20773;-55
2021/10/29 03:08:17;;;;;;;27.13;19.57;;;;;;;;;;2072240;28;20185;-62
2021/10/29 03:09:17;;;;;;;26.40;20.70;;;;;;;;;;2072138;28;20193;-66
2021/10/29 03:10:18;;;;;;;25.13;18.70;;;;;;;;;;2087926;28;20172;-59
2021/10/29 03:11:18;;;;;;;26.75;19.23;;;;;;;;;;2088333;28;20167;-60
2021/10/29 03:12:18;;;;;;;29.23;20.23;;;;;;;;;;2084882;28;20562;-63
2021/10/29 03:13:20;;;;;;;23.50;18.13;;;;;;;;;;2073811;28;20161;-61
2021/10/29 03:14:20;;;;;;;26.17;19.13;;;;;;;;;;2077231;28;20645;-60
2021/10/29 03:15:20;;;;;;;25.57;18.70;;;;;;;;;;2080856;28;20164;-61
2021/10/29 03:16:21;;;;;;;26.27;19.50;;;;;;;;;;2080831;28;20196;-62
2021/10/29 03:17:21;;;;;;;23.35;18.17;;;;;;;;;;2080107;28;20184;-58
2021/10/29 03:18:21;;;;;;;23.50;18.47;;;;;;;;;;2072917;28;20177;-62
2021/10/29 03:19:21;;;;;;;27.63;20.07;;;;;;;;;;2080666;28;20295;-65
2021/10/29 03:20:22;;;;;;;24.77;18.25;;;;;;;;;;2081395;28;20550;-62
2021/10/29 03:21:22;;;;;;;27.40;19.63;;;;;;;;;;2081942;28;20172;-61
2021/10/29 03:22:22;;;;;;;22.90;18.00;;;;;;;;;;2084177;28;20180;-59
2021/10/29 03:23:23;;;;;;;27.40;20.87;;;;;;;;;;2077382;28;20237;-61
2021/10/29 03:24:23;;;;;;;28.57;20.60;;;;;;;;;;2069990;28;20276;-60
2021/10/29 03:25:23;;;;;;;25.17;20.33;;;;;;;;;;2075580;28;20250;-58
2021/10/29 03:26:23;;;;;;;24.97;19.53;;;;;;;;;;2079166;28;20164;-61
2021/10/29 03:27:24;;;;;;;27.60;19.27;;;;;;;;;;2081473;28;20184;-62
2021/10/29 03:28:24;;;;;;;28.80;19.97;;;;;;;;;;2082122;28;20206;-63
2021/10/29 03:29:24;;;;;;;27.60;20.03;;;;;;;;;;2076498;28;20204;-59
2021/10/29 03:30:26;;;;;;;27.90;20.23;;;;;;;;;;2077953;28;20594;-62
2021/10/29 03:31:26;;;;;;;26.58;19.63;;;;;;;;;;2080010;28;20172;-62
2021/10/29 03:32:27;;;;;;;27.87;19.77;;;;;;;;;;2080132;28;20704;-60
2021/10/29 03:33:27;;;;;;;25.37;18.40;;;;;;;;;;2080495;28;20541;-61
2021/10/29 03:34:27;;;;;;;26.13;17.70;;;;;;;;;;2081138;28;20180;-60
2021/10/29 03:35:28;;;;;;;25.23;18.87;;;;;;;;;;2079873;28;20180;-63
2021/10/29 03:36:28;;;;;;;25.90;18.70;;;;;;;;;;2080737;28;20578;-60
2021/10/29 03:38:45;;;;;;;25.10;18.83;;;;;;;;;;2080857;28;20215;-59
2021/10/29 03:39:56;;;;;;;27.40;19.37;;;;;;;;;;2079631;28;20203;-59
2021/10/29 03:41:01;;;;;;;25.20;18.80;;;;;;;;;;2078648;28;20231;-60
2021/10/29 03:42:09;;;;;;;26.00;18.07;;;;;;;;;;2071974;28;20626;-61
2021/10/29 03:44:30;;;;;;;24.70;18.37;;;;;;;;;;2081809;28;20211;-64
2021/10/29 03:45:34;;;;;;;28.57;20.40;;;;;;;;;;2083578;28;20199;-61
2021/10/29 03:46:34;;;;;;;24.17;18.13;;;;;;;;;;2083830;28;20238;-59
2021/10/29 03:47:42;;;;;;;24.48;18.55;;;;;;;;;;2084147;28;20227;-61
2021/10/29 03:49:49;;;;;;;24.87;17.83;;;;;;;;;;2083936;28;20294;-59
2021/10/29 03:51:10;;;;;;;22.40;17.33;;;;;;;;;;2082683;28;20187;-60
2021/10/29 03:52:20;;;;;;;23.30;17.37;;;;;;;;;;2076087;28;20181;-61
2021/10/29 03:54:36;;;;;;;23.48;17.70;;;;;;;;;;2080456;28;20184;-62
2021/10/29 03:55:41;;;;;;;22.67;17.37;;;;;;;;;;2074393;28;20254;-61
2021/10/29 03:56:44;;;;;;;27.77;18.43;;;;;;;;;;2070719;28;20870;-60
2021/10/29 03:57:44;;;;;;;24.53;18.67;;;;;;;;;;2082930;28;20187;-60
2021/10/29 03:58:45;;;;;;;25.20;18.00;;;;;;;;;;2082883;28;20180;-62
2021/10/29 03:59:45;;;;;;;24.83;18.87;;;;;;;;;;2077118;28;20712;-60
2021/10/29 04:00:46;;;;;;;26.97;18.47;;;;;;;;;;2082245;28;20188;-62
2021/10/29 04:01:46;;;;;;;26.83;18.17;;;;;;;;;;2083678;28;20656;-62
2021/10/29 04:02:47;;;;;;;23.73;17.63;;;;;;;;;;2077061;28;20668;-59
2021/10/29 04:03:47;;;;;;;26.37;18.97;;;;;;;;;;2085290;28;20571;-61
2021/10/29 04:04:48;;;;;;;27.70;18.20;;;;;;;;;;2091241;28;20179;-59
2021/10/29 04:05:48;;;;;;;26.03;18.40;;;;;;;;;;2075086;28;20234;-63
2021/10/29 04:06:48;;;;;;;27.10;18.40;;;;;;;;;;2082011;28;20219;-62
2021/10/29 04:07:49;;;;;;;24.73;17.53;;;;;;;;;;2075339;28;20177;-62
2021/10/29 04:08:49;;;;;;;25.88;17.85;;;;;;;;;;2082909;28;20184;-60
2021/10/29 04:09:49;;;;;;;25.13;17.80;;;;;;;;;;2083584;28;20176;-64
2021/10/29 04:10:50;;;;;;;28.00;18.80;;;;;;;;;;2068674;28;20589;-59
2021/10/29 04:11:51;;;;;;;25.00;17.23;;;;;;;;;;2074029;28;20184;-63
2021/10/29 04:12:56;;;;;;;24.42;17.15;;;;;;;;;;2079659;28;20164;-60
2021/10/29 04:13:56;;;;;;;25.75;18.23;;;;;;;;;;2073321;28;20557;-62
2021/10/29 04:14:58;;;;;;;25.60;17.57;;;;;;;;;;2072185;28;20177;-62
2021/10/29 04:15:59;;;;;;;25.93;18.27;;;;;;;;;;2082936;28;20861;-64
2021/10/29 04:17:00;;;;;;;24.48;16.98;;;;;;;;;;2082692;28;20180;-59
2021/10/29 04:18:00;;;;;;;22.87;16.97;;;;;;;;;;2083063;28;20204;-62
2021/10/29 04:19:00;;;;;;;23.47;17.47;;;;;;;;;;2082743;28;20189;-62
2021/10/29 04:20:00;;;;;;;25.83;18.53;;;;;;;;;;2078632;28;20207;-60
2021/10/29 04:21:00;;;;;;;27.07;18.27;;;;;;;;;;2082595;28;20171;-62
2021/10/29 04:22:01;;;;;;;22.48;17.70;;;;;;;;;;2081706;28;20282;-61
2021/10/29 04:23:01;;;;;;;25.07;16.93;;;;;;;;;;2075499;28;20196;-62
2021/10/29 04:24:02;;;;;;;24.52;17.52;;;;;;;;;;2081779;28;20180;-60
2021/10/29 04:25:03;;;;;;;28.77;17.77;;;;;;;;;;2079109;28;20263;-61
2021/10/29 04:26:03;;;;;;;24.97;18.50;;;;;;;;;;2076318;28;20744;-60
2021/10/29 04:27:03;;;;;;;23.45;17.05;;;;;;;;;;2082478;28;20196;-60
2021/10/29 04:28:11;;;;;;;22.60;16.40;;;;;;;;;;2082399;28;20259;-62
2021/10/29 04:29:15;;;;;;;23.50;17.40;;;;;;;;;;2078983;28;20734;-62
2021/10/29 04:30:18;;;;;;;22.17;16.47;;;;;;;;;;2084468;28;20208;-59
2021/10/29 04:31:22;;;;;;;19.37;15.40;;;;;;;;;;2089142;28;20684;-59
2021/10/29 04:32:22;;;;;;;20.97;15.43;;;;;;;;;;2078618;28;20327;-62
2021/10/29 04:33:22;;;;;;;23.67;16.50;;;;;;;;;;2079071;28;20188;-62
2021/10/29 04:34:23;;;;;;;19.73;14.90;;;;;;;;;;2082459;28;20168;-62
2021/10/29 04:35:24;;;;;;;18.02;15.40;;;;;;;;;;2082622;28;20263;-61
2021/10/29 04:36:24;;;;;;;19.98;15.57;;;;;;;;;;2079250;28;20283;-60
2021/10/29 04:37:25;;;;;;;21.47;14.97;;;;;;;;;;2078659;28;20184;-61
2021/10/29 04:38:25;;;;;;;19.33;15.57;;;;;;;;;;2079860;28;20176;-60
2021/10/29 04:39:26;;;;;;;22.60;15.53;;;;;;;;;;2081734;28;20199;-62
2021/10/29 04:40:26;;;;;;;20.70;15.90;;;;;;;;;;2080844;28;20189;-62
2021/10/29 04:41:26;;;;;;;21.40;15.50;;;;;;;;;;2082041;28;20168;-62
2021/10/29 04:42:26;;;;;;;19.10;15.38;;;;;;;;;;2081729;28;20184;-64
2021/10/29 04:43:27;;;;;;;20.77;14.68;;;;;;;;;;2082090;28;20498;-61
2021/10/29 04:44:27;;;;;;;21.13;16.83;;;;;;;;;;2082824;28;20176;-60
2021/10/29 04:45:27;;;;;;;17.77;14.73;;;;;;;;;;2082223;28;20184;-60
2021/10/29 04:46:27;;;;;;;20.25;14.73;;;;;;;;;;2081783;28;20172;-61
2021/10/29 04:47:28;;;;;;;20.27;16.08;;;;;;;;;;2081530;28;20196;-61
2021/10/29 04:48:28;;;;;;;22.43;15.57;;;;;;;;;;2082379;28;20199;-62
2021/10/29 04:49:29;;;;;;;18.80;14.20;;;;;;;;;;2081925;28;20262;-63
2021/10/29 04:50:29;;;;;;;19.57;14.93;;;;;;;;;;2081583;28;20176;-63
2021/10/29 04:51:30;;;;;;;17.08;13.70;;;;;;;;;;2081758;28;20202;-62
2021/10/29 04:52:30;;;;;;;18.25;13.88;;;;;;;;;;2081627;28;20659;-60
2021/10/29 04:53:30;;;;;;;18.15;13.70;;;;;;;;;;2081827;28;20188;-63
2021/10/29 04:54:31;;;;;;;17.25;13.15;;;;;;;;;;2081775;28;20164;-60
2021/10/29 04:55:32;;;;;;;16.15;11.90;;;;;;;;;;2080724;28;20188;-61
2021/10/29 04:56:32;;;;;;;18.77;13.80;;;;;;;;;;2080877;28;20180;-61
2021/10/29 04:57:32;;;;;;;17.57;13.50;;;;;;;;;;2065141;28;20180;-60
2021/10/29 04:58:33;;;;;;;15.60;12.40;;;;;;;;;;2064962;28;20213;-60
2021/10/29 04:59:35;;;;;;;20.08;14.68;;;;;;;;;;2081249;28;20531;-62
2021/10/29 05:00:35;;;;;;;19.73;14.85;;;;;;;;;;2071860;28;20173;-61
2021/10/29 05:01:35;;;;;;;17.35;14.35;;;;;;;;;;2073955;28;20250;-64
2021/10/29 05:02:36;;;;;;;18.85;13.90;;;;;;;;;;2084585;28;20164;-63
2021/10/29 05:03:36;;;;;;;19.48;15.38;;;;;;;;;;2083492;28;20506;-63
2021/10/29 05:04:36;;;;;;;19.85;15.30;;;;;;;;;;2083007;28;20281;-62
2021/10/29 05:05:37;;;;;;;18.70;15.27;;;;;;;;;;2082063;28;20770;-62
2021/10/29 05:06:37;;;;;;;20.70;14.57;;;;;;;;;;2082868;28;20260;-58
2021/10/29 05:07:38;;;;;;;17.38;13.85;;;;;;;;;;2072769;28;20192;-62
2021/10/29 05:08:38;;;;;;;18.27;15.20;;;;;;;;;;2071918;28;21892;-61
2021/10/29 05:09:38;;;;;;;19.85;14.60;;;;;;;;;;2080184;28;20698;-60
2021/10/29 05:10:39;;;;;;;18.88;14.18;;;;;;;;;;2080423;28;20164;-56
2021/10/29 05:11:39;;;;;;;23.45;16.65;;;;;;;;;;2080365;28;20675;-61
2021/10/29 05:12:39;;;;;;;20.98;16.08;;;;;;;;;;2071561;28;20177;-60
2021/10/29 05:13:39;;;;;;;21.17;15.82;;;;;;;;;;2070944;28;20224;-64
2021/10/29 05:14:40;;;;;;;19.33;14.90;;;;;;;;;;2089442;28;20217;-60
2021/10/29 05:15:40;;;;;;;19.75;15.38;;;;;;;;;;2089067;28;20171;-60
2021/10/29 05:16:40;;;;;;;21.38;15.27;;;;;;;;;;2081795;28;20176;-62
2021/10/29 05:17:43;;;;;;;20.15;15.57;;;;;;;;;;2080580;28;20188;-64
2021/10/29 05:18:43;;;;;;;21.95;15.57;;;;;;;;;;2081160;28;20171;-64
2021/10/29 05:19:43;;;;;;;22.67;16.00;;;;;;;;;;2079286;28;20234;-59
2021/10/29 05:20:44;;;;;;;22.77;15.85;;;;;;;;;;2080324;28;20215;-60
2021/10/29 05:21:44;;;;;;;21.27;16.02;;;;;;;;;;2080917;28;20249;-60
2021/10/29 05:22:45;;;;;;;24.60;16.50;;;;;;;;;;2080485;28;22552;-61
2021/10/29 05:23:45;;;;;;;24.23;16.17;;;;;;;;;;2073243;28;20177;-63
2021/10/29 05:24:45;;;;;;;22.70;16.37;;;;;;;;;;2070367;28;20188;-63
2021/10/29 05:25:45;;;;;;;20.43;15.93;;;;;;;;;;2080792;28;20200;-62
2021/10/29 05:26:46;;;;;;;20.73;15.37;;;;;;;;;;2081266;28;20179;-62
2021/10/29 05:27:46;;;;;;;21.77;16.00;;;;;;;;;;2079004;28;20242;-59
2021/10/29 05:28:47;;;;;;;18.70;14.30;;;;;;;;;;2080771;28;20262;-62
2021/10/29 05:29:47;;;;;;;19.37;14.33;;;;;;;;;;2080445;28;20259;-61
2021/10/29 05:30:47;;;;;;;14.10;12.50;;;;;;;;;;2071805;28;20271;-60
2021/10/29 05:31:48;;;;;;;18.77;13.18;;;;;;;;;;2081605;28;20251;-64
2021/10/29 05:32:48;;;;;;;19.27;14.10;;;;;;;;;;2080034;28;20203;-64
2021/10/29 05:33:48;;;;;;;17.60;13.15;;;;;;;;;;2077820;28;20260;-61
2021/10/29 05:34:48;;;;;;;18.53;13.40;;;;;;;;;;2071884;28;20200;-63
2021/10/29 05:35:49;;;;;;;20.10;14.03;;;;;;;;;;2072240;28;20172;-63
2021/10/29 05:36:49;;;;;;;14.80;12.47;;;;;;;;;;2080897;28;20184;-62
2021/10/29 05:37:49;;;;;;;16.48;12.88;;;;;;;;;;2080427;28;20259;-62
2021/10/29 05:38:49;;;;;;;17.65;13.52;;;;;;;;;;2072904;28;20188;-62
2021/10/29 05:39:50;;;;;;;16.15;11.52;;;;;;;;;;2081127;28;20719;-65
2021/10/29 05:40:50;;;;;;;13.60;11.63;;;;;;;;;;2080692;28;20168;-61
2021/10/29 05:41:50;;;;;;;15.73;11.65;;;;;;;;;;2080889;28;20195;-63
2021/10/29 05:42:51;;;;;;;17.00;11.38;;;;;;;;;;2080985;28;20184;-64
2021/10/29 05:43:51;;;;;;;15.63;11.35;;;;;;;;;;2081592;28;20203;-63
2021/10/29 05:44:52;;;;;;;15.20;11.93;;;;;;;;;;2081308;28;20188;-61
2021/10/29 05:45:52;;;;;;;17.67;11.38;;;;;;;;;;2081178;28;20275;-65
2021/10/29 05:46:54;;;;;;;15.35;11.13;;;;;;;;;;2081256;28;20187;-62
2021/10/29 05:48:00;;;;;;;13.23;10.02;;;;;;;;;;2081249;28;20176;-64
2021/10/29 05:49:00;;;;;;;14.52;11.65;;;;;;;;;;2080625;28;20203;-62
2021/10/29 05:50:01;;;;;;;13.10;10.55;;;;;;;;;;2081168;28;20766;-64
2021/10/29 05:51:09;;;;;;;15.20;11.37;;;;;;;;;;2075507;28;20177;-61
2021/10/29 05:52:17;;;;;;;15.07;10.45;;;;;;;;;;2080590;28;20200;-63
2021/10/29 05:55:34;;;;;;;11.48;9.85;;;;;;;;;;2080930;28;20161;-63
2021/10/29 05:56:35;;;;;;;12.60;9.52;;;;;;;;;;2081884;28;20271;-60
2021/10/29 05:57:35;;;;;;;13.30;9.60;;;;;;;;;;2082602;28;20241;-61
2021/10/29 05:58:36;;;;;;;11.75;9.75;;;;;;;;;;2079779;28;20594;-63
2021/10/29 05:59:37;;;;;;;11.02;9.45;;;;;;;;;;2080916;28;20203;-63
2021/10/29 06:00:37;;;;;;;9.30;8.20;;;;;;;;;;2080483;28;20208;-63